createdAt,value
2023-05-06T00:02:01.291Z,54.00
2023-05-06T00:04:28.369Z,54.06
2023-05-06T00:06:57.432Z,54.07
2023-05-06T00:09:24.292Z,54.14
2023-05-06T00:11:53.189Z,54.27
2023-05-06T00:14:20.107Z,54.21
2023-05-06T00:16:46.987Z,54.35
2023-05-06T00:19:13.947Z,54.47
2023-05-06T00:21:40.790Z,54.56
2023-05-06T00:24:07.645Z,54.59
2023-05-06T00:26:34.453Z,54.67
2023-05-06T00:29:02.438Z,54.65
2023-05-06T00:31:29.279Z,54.81
2023-05-06T00:33:56.785Z,54.82
2023-05-06T00:36:23.753Z,54.98
2023-05-06T00:38:51.803Z,55.26
2023-05-06T00:41:18.868Z,55.47
2023-05-06T00:43:46.816Z,55.43
2023-05-06T00:46:13.649Z,55.46
2023-05-06T00:48:40.528Z,55.67
2023-05-06T00:51:11.262Z,55.68
2023-05-06T00:53:38.077Z,55.66
2023-05-06T00:56:05.830Z,55.68
2023-05-06T00:58:33.615Z,55.67
2023-05-06T01:01:01.197Z,55.76
2023-05-06T01:03:28.185Z,55.77
2023-05-06T01:06:37.877Z,55.71
2023-05-06T01:09:24.802Z,55.87
2023-05-06T01:12:04.035Z,55.78
2023-05-06T01:14:55.091Z,55.81
2023-05-06T01:17:21.896Z,55.86
2023-05-06T01:19:49.122Z,56.00
2023-05-06T01:22:15.930Z,55.98
2023-05-06T01:24:43.641Z,56.02
2023-05-06T01:27:11.466Z,56.05
2023-05-06T01:29:41.384Z,56.09
2023-05-06T01:32:19.026Z,56.01
2023-05-06T01:34:56.759Z,55.96
2023-05-06T01:38:02.541Z,55.97
2023-05-06T01:40:29.836Z,55.99
2023-05-06T01:42:56.657Z,56.12
2023-05-06T01:45:25.794Z,56.03
2023-05-06T01:47:53.704Z,56.08
2023-05-06T01:50:21.459Z,56.24
2023-05-06T01:53:01.744Z,56.26
2023-05-06T01:55:28.939Z,56.32
2023-05-06T01:57:58.648Z,56.41
2023-05-06T02:00:26.445Z,56.48
2023-05-06T02:02:53.663Z,56.71
2023-05-06T02:05:20.950Z,56.68
2023-05-06T02:07:48.680Z,56.78
2023-05-06T02:10:15.600Z,56.89
2023-05-06T02:12:48.148Z,56.93
2023-05-06T02:15:15.640Z,57.00
2023-05-06T02:17:43.628Z,57.06
2023-05-06T02:20:10.577Z,57.12
2023-05-06T02:22:37.397Z,57.16
2023-05-06T02:25:04.495Z,57.17
2023-05-06T02:27:31.656Z,57.21
2023-05-06T02:29:58.735Z,57.27
2023-05-06T02:32:25.598Z,57.29
2023-05-06T02:34:54.116Z,57.14
2023-05-06T02:37:22.312Z,57.11
2023-05-06T02:39:49.130Z,57.17
2023-05-06T02:42:15.912Z,57.07
2023-05-06T02:44:42.869Z,57.01
2023-05-06T02:47:09.837Z,57.00
2023-05-06T02:49:40.315Z,57.03
2023-05-06T02:52:07.268Z,56.90
2023-05-06T02:54:34.312Z,56.71
2023-05-06T02:57:01.864Z,56.64
2023-05-06T02:59:28.905Z,56.63
2023-05-06T03:01:56.370Z,56.39
2023-05-06T03:04:23.198Z,56.33
2023-05-06T03:06:51.412Z,56.41
2023-05-06T03:09:20.047Z,56.50
2023-05-06T03:11:47.481Z,56.56
2023-05-06T03:14:17.603Z,56.44
2023-05-06T03:16:45.306Z,55.99
2023-05-06T03:19:12.620Z,55.71
2023-05-06T03:21:40.298Z,55.54
2023-05-06T03:24:07.263Z,55.38
2023-05-06T03:26:38.575Z,54.69
2023-05-06T03:29:08.834Z,54.39
2023-05-06T03:31:36.467Z,54.34
2023-05-06T03:34:03.335Z,54.12
2023-05-06T03:36:31.737Z,53.85
2023-05-06T03:39:01.751Z,53.43
2023-05-06T03:41:29.450Z,53.27
2023-05-06T03:43:56.984Z,53.04
2023-05-06T03:46:26.309Z,52.94
2023-05-06T03:48:55.062Z,52.72
2023-05-06T03:51:22.879Z,52.63
2023-05-06T03:53:50.957Z,52.49
2023-05-06T03:56:21.872Z,52.37
2023-05-06T03:58:49.897Z,52.26
2023-05-06T04:01:18.120Z,52.07
2023-05-06T04:03:45.508Z,51.76
2023-05-06T04:06:12.980Z,51.58
2023-05-06T04:08:41.304Z,51.19
2023-05-06T04:11:09.003Z,51.03
2023-05-06T04:13:37.350Z,50.83
2023-05-06T04:16:07.752Z,50.40
2023-05-06T04:18:39.253Z,50.33
2023-05-06T04:21:11.964Z,50.41
2023-05-06T04:23:41.021Z,50.32
2023-05-06T04:26:07.943Z,50.02
2023-05-06T04:28:36.298Z,49.55
2023-05-06T04:31:03.450Z,49.29
2023-05-06T04:33:37.080Z,49.25
2023-05-06T04:36:06.502Z,49.34
2023-05-06T04:38:35.193Z,49.39
2023-05-06T04:41:04.901Z,49.50
2023-05-06T04:43:32.544Z,49.65
2023-05-06T04:46:06.201Z,49.27
2023-05-06T04:48:33.906Z,49.00
2023-05-06T04:51:04.784Z,48.69
2023-05-06T04:53:32.574Z,48.29
2023-05-06T04:55:59.814Z,47.66
2023-05-06T04:58:26.648Z,47.55
2023-05-06T05:00:54.698Z,47.50
2023-05-06T05:03:21.694Z,46.92
2023-05-06T05:05:48.672Z,46.34
2023-05-06T05:08:17.387Z,46.12
2023-05-06T05:10:50.871Z,46.25
2023-05-06T05:13:21.178Z,45.98
2023-05-06T05:15:49.543Z,45.19
2023-05-06T05:18:16.515Z,44.44
2023-05-06T05:20:44.029Z,44.44
2023-05-06T05:23:12.222Z,44.33
2023-05-06T05:25:39.158Z,44.26
2023-05-06T05:28:06.156Z,43.92
2023-05-06T05:30:33.882Z,43.68
2023-05-06T05:33:01.221Z,42.84
2023-05-06T05:35:28.820Z,42.58
2023-05-06T05:37:57.006Z,41.73
2023-05-06T05:40:24.150Z,41.37
2023-05-06T05:42:53.623Z,41.34
2023-05-06T05:45:24.873Z,41.63
2023-05-06T05:47:56.668Z,41.32
2023-05-06T05:50:23.764Z,40.93
2023-05-06T05:52:55.458Z,41.20
2023-05-06T05:55:22.359Z,41.27
2023-05-06T05:57:50.412Z,40.22
2023-05-06T06:00:18.894Z,39.73
2023-05-06T06:02:46.405Z,39.49
2023-05-06T06:05:16.281Z,39.96
2023-05-06T06:07:43.333Z,37.98
2023-05-06T06:10:12.963Z,37.85
2023-05-06T06:12:40.535Z,37.08
2023-05-06T06:15:11.008Z,36.42
2023-05-06T06:17:39.310Z,35.06
2023-05-06T06:20:07.165Z,33.79
2023-05-06T06:22:34.848Z,32.91
2023-05-06T06:25:01.785Z,32.14
2023-05-06T06:27:29.090Z,32.04
2023-05-06T06:29:57.145Z,31.00
2023-05-06T06:32:24.370Z,29.94
2023-05-06T06:34:53.231Z,29.36
2023-05-06T06:37:20.094Z,29.07
2023-05-06T06:39:46.896Z,29.12
2023-05-06T06:42:14.264Z,28.64
2023-05-06T06:44:48.582Z,29.16
2023-05-06T06:47:15.461Z,29.95
2023-05-06T06:49:42.277Z,28.62
2023-05-06T06:52:09.010Z,27.57
2023-05-06T06:54:38.296Z,26.32
2023-05-06T06:57:06.641Z,26.81
2023-05-06T06:59:33.757Z,27.49
2023-05-06T07:02:01.712Z,27.77
2023-05-06T07:04:28.752Z,26.25
2023-05-06T07:06:56.091Z,25.73
2023-05-06T07:09:24.526Z,25.76
2023-05-06T07:11:51.368Z,25.30
2023-05-06T07:14:18.385Z,24.56
2023-05-06T07:16:46.720Z,25.69
2023-05-06T07:19:14.412Z,26.39
2023-05-06T07:21:41.864Z,25.96
2023-05-06T07:24:10.740Z,25.81
2023-05-06T07:26:41.790Z,26.26
2023-05-06T07:29:11.815Z,26.40
2023-05-06T07:31:39.209Z,26.12
2023-05-06T07:34:07.550Z,25.93
2023-05-06T07:36:40.756Z,25.50
2023-05-06T07:39:07.733Z,25.35
2023-05-06T07:41:35.633Z,25.49
2023-05-06T07:44:06.346Z,25.86
2023-05-06T07:46:33.219Z,25.81
2023-05-06T07:49:00.418Z,25.46
2023-05-06T07:51:27.679Z,25.04
2023-05-06T07:53:54.498Z,25.48
2023-05-06T07:56:21.603Z,26.11
2023-05-06T07:58:48.933Z,25.76
2023-05-06T08:01:16.468Z,25.24
2023-05-06T08:03:44.696Z,25.02
2023-05-06T08:06:13.313Z,24.68
2023-05-06T08:08:40.900Z,25.10
2023-05-06T08:11:07.884Z,25.29
2023-05-06T08:13:35.549Z,25.45
2023-05-06T08:16:02.880Z,25.49
2023-05-06T08:18:30.334Z,24.76
2023-05-06T08:20:57.988Z,24.50
2023-05-06T08:23:25.590Z,24.30
2023-05-06T08:25:52.429Z,24.55
2023-05-06T08:28:19.306Z,24.32
2023-05-06T08:30:48.120Z,23.96
2023-05-06T08:33:15.071Z,23.91
2023-05-06T08:35:43.255Z,24.09
2023-05-06T08:38:10.262Z,24.04
2023-05-06T08:40:43.141Z,23.53
2023-05-06T08:43:14.207Z,23.58
2023-05-06T08:45:41.700Z,23.24
2023-05-06T08:48:10.317Z,23.56
2023-05-06T08:50:45.724Z,23.13
2023-05-06T08:53:16.891Z,23.26
2023-05-06T08:55:44.149Z,22.94
2023-05-06T08:58:13.540Z,23.37
2023-05-06T09:00:42.757Z,22.93
2023-05-06T09:03:10.101Z,23.13
2023-05-06T09:05:37.128Z,22.92
2023-05-06T09:08:05.554Z,22.51
2023-05-06T09:10:42.148Z,22.25
2023-05-06T09:13:12.600Z,22.59
2023-05-06T09:15:41.753Z,23.12
2023-05-06T09:18:08.937Z,22.99
2023-05-06T09:20:36.024Z,22.76
2023-05-06T09:23:02.873Z,22.49
2023-05-06T09:25:30.580Z,22.55
2023-05-06T09:28:11.438Z,21.85
2023-05-06T09:30:43.931Z,21.61
2023-05-06T09:33:11.357Z,22.17
2023-05-06T09:35:42.249Z,21.90
2023-05-06T09:38:09.555Z,21.98
2023-05-06T09:40:36.516Z,22.00
2023-05-06T09:43:09.577Z,21.90
2023-05-06T09:45:37.960Z,21.68
2023-05-06T09:48:06.038Z,21.82
2023-05-06T09:50:33.624Z,21.64
2023-05-06T09:53:03.139Z,21.54
2023-05-06T09:55:31.245Z,21.28
2023-05-06T09:58:00.976Z,20.50
2023-05-06T10:00:29.456Z,20.28
2023-05-06T10:02:56.626Z,20.75
2023-05-06T10:05:25.265Z,21.10
2023-05-06T10:07:53.069Z,20.93
2023-05-06T10:10:20.826Z,20.95
2023-05-06T10:12:48.200Z,20.74
2023-05-06T10:15:15.679Z,20.02
2023-05-06T10:17:46.974Z,19.98
2023-05-06T10:20:14.413Z,20.27
2023-05-06T10:23:09.124Z,19.60
2023-05-06T10:25:44.374Z,19.38
2023-05-06T10:28:19.822Z,19.67
2023-05-06T10:30:56.694Z,19.93
2023-05-06T10:33:23.505Z,20.19
2023-05-06T10:36:07.185Z,20.05
2023-05-06T10:38:42.212Z,21.09
2023-05-06T10:41:09.581Z,20.12
2023-05-06T10:43:43.229Z,20.31
2023-05-06T10:46:15.866Z,20.01
2023-05-06T10:49:10.767Z,19.75
2023-05-06T10:51:42.048Z,19.59
2023-05-06T10:54:18.168Z,19.95
2023-05-06T10:56:48.276Z,20.16
2023-05-06T10:59:20.050Z,20.65
2023-05-06T11:01:55.733Z,20.37
2023-05-06T11:04:22.637Z,20.31
2023-05-06T11:06:52.614Z,20.21
2023-05-06T11:09:25.713Z,19.88
2023-05-06T11:12:05.597Z,20.48
2023-05-06T11:14:38.085Z,20.05
2023-05-06T11:17:11.070Z,20.13
2023-05-06T11:19:39.604Z,20.49
2023-05-06T11:22:07.381Z,20.16
2023-05-06T11:24:42.133Z,19.71
2023-05-06T11:27:09.957Z,19.51
2023-05-06T11:29:37.024Z,19.89
2023-05-06T11:32:05.138Z,20.30
2023-05-06T11:34:32.211Z,20.60
2023-05-06T11:37:01.727Z,20.39
2023-05-06T11:39:36.672Z,19.66
2023-05-06T11:42:07.526Z,19.58
2023-05-06T11:44:36.690Z,19.26
2023-05-06T11:47:05.514Z,19.35
2023-05-06T11:49:47.043Z,19.59
2023-05-06T11:52:14.329Z,19.34
2023-05-06T11:54:41.940Z,19.40
2023-05-06T11:57:09.123Z,19.29
2023-05-06T11:59:37.373Z,19.38
2023-05-06T12:02:09.578Z,19.50
2023-05-06T12:04:47.292Z,19.63
2023-05-06T12:07:15.003Z,19.09
2023-05-06T12:09:48.740Z,19.24
2023-05-06T12:12:22.462Z,19.77
2023-05-06T12:14:50.165Z,19.37
2023-05-06T12:17:17.072Z,19.54
2023-05-06T12:19:46.028Z,19.63
2023-05-06T12:22:24.492Z,19.07
2023-05-06T12:25:13.096Z,18.71
2023-05-06T12:28:01.357Z,18.88
2023-05-06T12:30:31.935Z,19.37
2023-05-06T12:33:00.303Z,19.36
2023-05-06T12:35:28.463Z,18.96
2023-05-06T12:37:57.264Z,18.71
2023-05-06T12:40:24.404Z,18.58
2023-05-06T12:42:55.507Z,18.89
2023-05-06T12:45:22.642Z,18.73
2023-05-06T12:47:57.198Z,18.50
2023-05-06T12:50:40.386Z,19.51
2023-05-06T12:53:09.068Z,19.49
2023-05-06T12:55:37.460Z,19.26
2023-05-06T12:58:15.329Z,18.98
2023-05-06T13:00:42.309Z,18.36
2023-05-06T13:03:10.963Z,18.50
2023-05-06T13:05:38.937Z,18.41
2023-05-06T13:08:06.209Z,18.34
2023-05-06T13:10:33.340Z,18.45
2023-05-06T13:13:00.192Z,18.00
2023-05-06T13:15:27.267Z,18.24
2023-05-06T13:17:54.105Z,18.75
2023-05-06T13:20:21.247Z,18.84
2023-05-06T13:22:54.730Z,18.23
2023-05-06T13:25:22.724Z,18.43
2023-05-06T13:27:50.637Z,18.31
2023-05-06T13:30:26.031Z,18.23
2023-05-06T13:32:53.115Z,18.44
2023-05-06T13:35:20.019Z,17.98
2023-05-06T13:37:47.037Z,17.78
2023-05-06T13:40:14.285Z,17.82
2023-05-06T13:42:41.518Z,17.75
2023-05-06T13:45:08.956Z,17.91
2023-05-06T13:47:37.025Z,18.12
2023-05-06T13:50:06.036Z,18.62
2023-05-06T13:52:33.181Z,18.35
2023-05-06T13:55:00.170Z,18.75
2023-05-06T13:57:28.372Z,18.44
2023-05-06T13:59:55.344Z,18.94
2023-05-06T14:02:22.245Z,18.24
2023-05-06T14:04:51.396Z,18.31
2023-05-06T14:07:18.596Z,18.42
2023-05-06T14:09:45.494Z,18.52
2023-05-06T14:12:13.106Z,18.80
2023-05-06T14:14:40.456Z,18.41
2023-05-06T14:17:07.947Z,17.96
2023-05-06T14:19:35.264Z,17.72
2023-05-06T14:22:02.238Z,16.89
2023-05-06T14:24:29.512Z,16.29
2023-05-06T14:26:56.404Z,15.78
2023-05-06T14:29:23.191Z,15.40
2023-05-06T14:31:50.126Z,15.45
2023-05-06T14:34:16.987Z,15.15
2023-05-06T14:36:44.015Z,14.96
2023-05-06T14:39:10.879Z,14.91
2023-05-06T14:41:37.739Z,14.72
2023-05-06T14:44:04.920Z,14.51
2023-05-06T14:46:32.752Z,14.27
2023-05-06T14:48:59.571Z,14.42
2023-05-06T14:51:26.546Z,14.26
2023-05-06T14:53:53.455Z,14.60
2023-05-06T14:56:20.798Z,14.50
2023-05-06T14:58:47.899Z,14.42
2023-05-06T15:01:16.236Z,14.36
2023-05-06T15:03:44.762Z,13.90
2023-05-06T15:06:12.862Z,14.04
2023-05-06T15:08:39.667Z,14.45
2023-05-06T15:11:06.537Z,14.44
2023-05-06T15:13:35.348Z,14.69
2023-05-06T15:16:02.189Z,14.65
2023-05-06T15:18:30.731Z,14.89
2023-05-06T15:21:01.224Z,14.29
2023-05-06T15:23:31.086Z,13.95
2023-05-06T15:25:58.104Z,13.94
2023-05-06T15:28:25.164Z,13.73
2023-05-06T15:30:52.361Z,13.81
2023-05-06T15:33:19.301Z,14.36
2023-05-06T15:35:46.209Z,14.01
2023-05-06T15:38:13.583Z,13.99
2023-05-06T15:40:48.635Z,14.08
2023-05-06T15:43:22.940Z,14.05
2023-05-06T15:45:50.959Z,13.64
2023-05-06T15:48:17.878Z,13.78
2023-05-06T15:50:45.565Z,13.73
2023-05-06T15:53:13.517Z,13.78
2023-05-06T15:55:46.763Z,13.77
2023-05-06T15:58:22.650Z,14.05
2023-05-06T16:00:49.710Z,14.51
2023-05-06T16:03:16.980Z,14.70
2023-05-06T16:05:43.892Z,14.58
2023-05-06T16:08:10.841Z,14.85
2023-05-06T16:10:38.145Z,15.07
2023-05-06T16:13:08.135Z,15.08
2023-05-06T16:15:35.829Z,14.74
2023-05-06T16:18:02.770Z,14.77
2023-05-06T16:20:31.626Z,14.64
2023-05-06T16:22:59.514Z,14.31
2023-05-06T16:25:27.159Z,14.50
2023-05-06T16:27:55.032Z,14.83
2023-05-06T16:30:23.735Z,14.98
2023-05-06T16:32:51.597Z,15.26
2023-05-06T16:35:18.674Z,15.29
2023-05-06T16:37:46.573Z,15.67
2023-05-06T16:40:16.649Z,15.79
2023-05-06T16:42:44.303Z,16.18
2023-05-06T16:45:11.365Z,16.62
2023-05-06T16:47:40.731Z,16.41
2023-05-06T16:50:11.874Z,16.96
2023-05-06T16:52:41.031Z,17.31
2023-05-06T16:55:08.562Z,17.59
2023-05-06T16:57:36.130Z,18.19
2023-05-06T17:00:07.482Z,18.82
2023-05-06T17:02:35.947Z,19.56
2023-05-06T17:05:03.435Z,20.31
2023-05-06T17:07:33.408Z,21.01
2023-05-06T17:10:05.812Z,21.79
2023-05-06T17:12:34.468Z,22.49
2023-05-06T17:15:03.591Z,22.82
2023-05-06T17:17:32.954Z,23.34
2023-05-06T17:20:01.548Z,23.83
2023-05-06T17:22:28.831Z,24.12
2023-05-06T17:24:56.117Z,24.31
2023-05-06T17:27:25.111Z,24.72
2023-05-06T17:29:51.925Z,25.08
2023-05-06T17:32:19.165Z,25.39
2023-05-06T17:34:46.832Z,25.66
2023-05-06T17:37:13.754Z,25.85
2023-05-06T17:39:40.941Z,25.92
2023-05-06T17:42:08.719Z,26.16
2023-05-06T17:44:37.723Z,26.43
2023-05-06T17:47:05.453Z,26.58
2023-05-06T17:49:33.857Z,26.73
2023-05-06T17:52:01.742Z,26.92
2023-05-06T17:54:32.066Z,26.98
2023-05-06T17:57:00.541Z,27.21
2023-05-06T17:59:28.990Z,27.24
2023-05-06T18:01:56.670Z,27.47
2023-05-06T18:04:23.960Z,27.60
2023-05-06T18:06:51.976Z,28.00
2023-05-06T18:09:19.351Z,28.18
2023-05-06T18:11:47.182Z,28.33
2023-05-06T18:14:14.966Z,28.61
2023-05-06T18:16:42.539Z,28.79
2023-05-06T18:19:10.776Z,29.06
2023-05-06T18:21:42.565Z,29.17
2023-05-06T18:24:15.960Z,29.31
2023-05-06T18:26:46.010Z,29.42
2023-05-06T18:29:15.791Z,29.52
2023-05-06T18:31:43.265Z,29.81
2023-05-06T18:34:10.501Z,29.94
2023-05-06T18:36:37.863Z,30.10
2023-05-06T18:39:05.090Z,30.22
2023-05-06T18:41:33.832Z,30.47
2023-05-06T18:44:03.675Z,30.67
2023-05-06T18:46:30.840Z,30.85
2023-05-06T18:48:58.546Z,30.95
2023-05-06T18:51:25.831Z,31.13
2023-05-06T18:53:53.018Z,31.39
2023-05-06T18:56:20.877Z,31.37
2023-05-06T18:58:47.746Z,31.72
2023-05-06T19:01:18.391Z,31.81
2023-05-06T19:03:46.290Z,32.32
2023-05-06T19:06:13.465Z,32.57
2023-05-06T19:08:41.075Z,32.74
2023-05-06T19:11:14.655Z,32.94
2023-05-06T19:13:43.194Z,32.69
2023-05-06T19:16:10.700Z,32.88
2023-05-06T19:18:37.632Z,32.85
2023-05-06T19:21:04.495Z,33.13
2023-05-06T19:23:32.306Z,33.22
2023-05-06T19:25:59.123Z,33.18
2023-05-06T19:28:26.609Z,33.21
2023-05-06T19:30:54.554Z,33.38
2023-05-06T19:33:21.500Z,33.51
2023-05-06T19:35:48.373Z,33.35
2023-05-06T19:38:15.286Z,33.07
2023-05-06T19:40:42.031Z,33.34
2023-05-06T19:43:08.853Z,33.36
2023-05-06T19:45:36.026Z,33.09
2023-05-06T19:48:04.955Z,33.22
2023-05-06T19:50:32.957Z,32.91
2023-05-06T19:52:59.798Z,33.18
2023-05-06T19:55:26.660Z,33.11
2023-05-06T19:57:56.627Z,33.02
2023-05-06T20:00:24.973Z,33.00
2023-05-06T20:02:52.399Z,32.58
2023-05-06T20:05:24.654Z,32.65
2023-05-06T20:07:51.772Z,32.82
2023-05-06T20:10:19.452Z,32.74
2023-05-06T20:12:46.292Z,32.62
2023-05-06T20:15:13.476Z,32.61
2023-05-06T20:17:43.379Z,32.66
2023-05-06T20:20:10.898Z,32.51
2023-05-06T20:22:40.695Z,32.59
2023-05-06T20:25:13.877Z,32.70
2023-05-06T20:27:42.940Z,32.80
2023-05-06T20:30:10.535Z,33.08
2023-05-06T20:32:39.681Z,33.10
2023-05-06T20:35:06.727Z,33.27
2023-05-06T20:37:34.850Z,33.05
2023-05-06T20:40:04.064Z,33.19
2023-05-06T20:42:31.309Z,33.20
2023-05-06T20:44:58.280Z,33.26
2023-05-06T20:47:25.773Z,33.27
2023-05-06T20:49:53.543Z,33.40
2023-05-06T20:52:21.325Z,33.43
2023-05-06T20:54:48.377Z,33.60
2023-05-06T20:57:17.799Z,33.72
2023-05-06T20:59:45.396Z,33.70
2023-05-06T21:02:12.138Z,33.63
2023-05-06T21:04:39.326Z,33.74
2023-05-06T21:07:06.160Z,33.68
2023-05-06T21:09:32.989Z,33.85
2023-05-06T21:11:59.817Z,33.87
2023-05-06T21:14:26.943Z,34.00
2023-05-06T21:16:53.854Z,33.86
2023-05-06T21:19:20.657Z,33.86
2023-05-06T21:21:47.855Z,34.02
2023-05-06T21:24:15.030Z,34.16
2023-05-06T21:26:42.509Z,34.29
2023-05-06T21:29:09.969Z,34.33
2023-05-06T21:31:37.576Z,34.50
2023-05-06T21:34:08.460Z,34.71
2023-05-06T21:36:35.980Z,34.64
2023-05-06T21:39:07.790Z,34.64
2023-05-06T21:41:35.631Z,34.53
2023-05-06T21:44:03.405Z,34.76
2023-05-06T21:46:30.778Z,34.98
2023-05-06T21:48:58.055Z,34.87
2023-05-06T21:51:28.137Z,35.05
2023-05-06T21:53:55.045Z,35.03
2023-05-06T21:56:21.909Z,35.04
2023-05-06T21:58:48.853Z,35.05
2023-05-06T22:01:15.678Z,35.17
2023-05-06T22:03:43.686Z,35.39
2023-05-06T22:06:11.239Z,35.40
2023-05-06T22:08:38.868Z,35.29
2023-05-06T22:11:06.147Z,35.47
2023-05-06T22:13:33.388Z,35.33
2023-05-06T22:16:01.390Z,35.34
2023-05-06T22:18:29.469Z,35.42
2023-05-06T22:20:57.344Z,35.53
2023-05-06T22:23:25.485Z,35.71
2023-05-06T22:25:52.334Z,35.77
2023-05-06T22:28:19.295Z,36.02
2023-05-06T22:30:46.146Z,36.21
2023-05-06T22:33:13.626Z,36.27
2023-05-06T22:35:40.490Z,36.54
2023-05-06T22:38:07.696Z,36.59
2023-05-06T22:40:34.792Z,36.68
2023-05-06T22:43:01.663Z,36.66
2023-05-06T22:45:28.698Z,36.73
2023-05-06T22:47:56.424Z,36.72
2023-05-06T22:50:24.522Z,36.64
2023-05-06T22:52:51.395Z,36.55
2023-05-06T22:55:18.266Z,36.58
2023-05-06T22:57:46.593Z,36.73
2023-05-06T23:00:13.408Z,36.91
2023-05-06T23:02:40.598Z,36.95
2023-05-06T23:05:07.820Z,36.81
2023-05-06T23:07:34.782Z,36.74
2023-05-06T23:10:01.987Z,36.82
2023-05-06T23:12:55.437Z,36.75
2023-05-06T23:24:12.487Z,36.77
2023-05-06T23:26:39.248Z,36.91
2023-05-06T23:29:06.048Z,37.02
2023-05-06T23:31:33.057Z,37.10
2023-05-06T23:33:59.950Z,37.49
2023-05-06T23:36:26.778Z,37.39
2023-05-06T23:38:53.564Z,37.37
2023-05-06T23:41:23.004Z,37.45
2023-05-06T23:43:49.788Z,37.51
2023-05-06T23:46:16.728Z,37.44
2023-05-06T23:48:43.725Z,37.41
2023-05-06T23:51:10.817Z,37.20
2023-05-06T23:53:37.587Z,37.22
2023-05-06T23:56:04.875Z,37.14
2023-05-06T23:58:32.006Z,37.24
